Time;durP1;ratioP1;P1;durP2;ratioP2;P2;SDS_P1;SDS_P2;PMS_P1;PMS_P2;Temp;Humidity;BMP_temperature;BMP_pressure;BME280_temperature;BME280_humidity;BME280_pressure;Samples;Min_cycle;Max_cycle;Signal;HPM_P1;HPM_P2
2022/06/29 00:00:07;;;;;;;1.58;0.70;;;20.40;89.70;;;;;;5006168;28;20053;-34
2022/06/29 00:02:33;;;;;;;0.90;0.60;;;20.40;89.80;;;;;;5017727;28;20537;-33
2022/06/29 00:04:58;;;;;;;1.25;0.82;;;20.40;89.90;;;;;;5005356;28;20026;-34
2022/06/29 00:07:24;;;;;;;1.08;0.70;;;20.40;89.90;;;;;;5016439;28;20100;-34
2022/06/29 00:09:49;;;;;;;1.83;0.80;;;20.40;89.90;;;;;;5007033;28;20065;-34
2022/06/29 00:12:15;;;;;;;1.48;0.88;;;20.30;89.90;;;;;;5014580;28;20026;-34
2022/06/29 00:14:43;;;;;;;2.38;0.80;;;20.30;89.90;;;;;;5010343;28;20033;-35
2022/06/29 00:17:12;;;;;;;0.82;0.60;;;20.40;90.00;;;;;;5011691;28;20068;-34
2022/06/29 00:19:39;;;;;;;1.27;0.90;;;20.30;89.90;;;;;;5011188;28;20028;-34
2022/06/29 00:22:05;;;;;;;1.25;0.60;;;20.30;89.90;;;;;;5010717;28;20021;-34
2022/06/29 00:24:32;;;;;;;1.70;0.82;;;20.30;90.00;;;;;;5012834;28;20528;-33
2022/06/29 00:26:58;;;;;;;1.15;0.95;;;20.30;90.00;;;;;;5007544;28;20088;-34
2022/06/29 00:29:24;;;;;;;1.52;0.70;;;20.30;90.00;;;;;;5015644;28;20038;-35
2022/06/29 00:31:50;;;;;;;1.25;0.65;;;20.20;90.10;;;;;;5006502;28;20121;-34
2022/06/29 00:34:16;;;;;;;1.73;0.88;;;20.20;90.10;;;;;;5016384;28;20465;-35
2022/06/29 00:36:41;;;;;;;1.63;1.00;;;20.20;90.10;;;;;;5006347;28;20028;-34
2022/06/29 00:39:07;;;;;;;1.30;0.80;;;20.20;90.20;;;;;;5021423;28;20045;-33
2022/06/29 00:41:44;;;;;;;1.42;0.70;;;20.20;90.20;;;;;;5024303;28;20057;-36
2022/06/29 00:44:15;;;;;;;0.85;0.50;;;20.20;90.20;;;;;;5012741;28;20469;-35
2022/06/29 00:46:58;;;;;;;1.15;0.70;;;20.20;90.20;;;;;;5024725;28;20056;-33
2022/06/29 00:49:26;;;;;;;1.20;1.00;;;20.20;90.30;;;;;;5012611;28;20022;-34
2022/06/29 00:52:11;;;;;;;1.20;0.70;;;20.20;90.20;;;;;;5025368;28;20029;-34
2022/06/29 00:54:39;;;;;;;1.73;0.70;;;20.10;90.30;;;;;;5024076;28;20021;-35
2022/06/29 00:57:11;;;;;;;1.17;0.75;;;20.10;90.30;;;;;;5024895;28;20033;-35
2022/06/29 00:59:49;;;;;;;1.42;0.88;;;20.10;90.30;;;;;;5023743;28;20476;-36
2022/06/29 01:02:16;;;;;;;1.80;0.95;;;20.10;90.30;;;;;;5025432;28;20113;-36
2022/06/29 01:04:43;;;;;;;1.88;0.93;;;20.10;90.40;;;;;;5024830;28;20360;-34
2022/06/29 01:07:11;;;;;;;1.58;0.85;;;20.00;90.40;;;;;;5028477;28;20037;-34
2022/06/29 01:09:38;;;;;;;1.38;0.90;;;20.00;90.50;;;;;;5028314;28;20033;-35
2022/06/29 01:12:04;;;;;;;0.95;0.85;;;20.00;90.50;;;;;;5009400;28;20025;-35
2022/06/29 01:14:30;;;;;;;1.02;0.68;;;19.90;90.60;;;;;;5021583;28;20382;-35
2022/06/29 01:16:55;;;;;;;0.80;0.80;;;19.90;90.70;;;;;;5029267;28;20021;-34
2022/06/29 01:19:22;;;;;;;1.17;0.90;;;19.80;90.70;;;;;;5028321;28;20033;-34
2022/06/29 01:21:51;;;;;;;0.80;0.80;;;19.70;90.80;;;;;;5027532;28;20791;-34
2022/06/29 01:24:17;;;;;;;0.98;0.70;;;19.70;90.80;;;;;;5028454;28;20017;-33
2022/06/29 01:26:43;;;;;;;1.50;0.90;;;19.70;90.90;;;;;;5029035;28;20037;-35
2022/06/29 01:29:09;;;;;;;2.75;1.20;;;19.60;91.00;;;;;;5028841;28;20547;-35
2022/06/29 01:31:35;;;;;;;1.40;0.77;;;19.60;91.00;;;;;;5028439;28;20384;-34
2022/06/29 01:34:01;;;;;;;1.17;0.90;;;19.50;91.10;;;;;;5028604;28;20030;-36
2022/06/29 01:36:27;;;;;;;0.98;0.90;;;19.50;91.10;;;;;;5027338;28;20036;-36
2022/06/29 01:38:52;;;;;;;1.63;0.90;;;19.50;91.20;;;;;;5028520;28;20118;-35
2022/06/29 01:41:18;;;;;;;2.50;1.10;;;19.40;91.20;;;;;;5023899;28;20538;-34
2022/06/29 01:43:43;;;;;;;1.45;0.98;;;19.40;91.30;;;;;;5028429;28;20029;-34
2022/06/29 01:46:09;;;;;;;0.70;0.70;;;19.40;91.30;;;;;;5028092;28;20045;-35
2022/06/29 01:48:35;;;;;;;1.30;1.00;;;19.40;91.40;;;;;;5027693;28;20104;-34
2022/06/29 01:51:00;;;;;;;1.40;0.80;;;19.30;91.40;;;;;;5028046;28;20025;-34
2022/06/29 01:53:26;;;;;;;0.80;0.80;;;19.30;91.50;;;;;;5027647;28;20104;-36
2022/06/29 01:55:52;;;;;;;2.72;1.00;;;19.30;91.50;;;;;;5027994;28;20033;-35
2022/06/29 01:58:18;;;;;;;2.05;1.10;;;19.30;91.60;;;;;;5028065;28;20033;-35
2022/06/29 02:00:44;;;;;;;1.50;1.00;;;19.20;91.60;;;;;;5027870;28;20081;-35
2022/06/29 02:03:13;;;;;;;2.35;1.05;;;19.20;91.60;;;;;;5027745;28;20026;-34
2022/06/29 02:05:38;;;;;;;1.50;0.90;;;19.20;91.70;;;;;;5027635;28;20280;-35
2022/06/29 02:08:05;;;;;;;2.13;1.05;;;19.20;91.70;;;;;;5028560;28;20566;-35
2022/06/29 02:10:31;;;;;;;1.83;1.10;;;19.10;91.80;;;;;;5026676;28;20524;-35
2022/06/29 02:12:56;;;;;;;2.15;1.20;;;19.10;91.80;;;;;;5028423;28;20025;-36
2022/06/29 02:15:23;;;;;;;2.67;0.90;;;19.10;91.80;;;;;;5028282;28;20076;-35
2022/06/29 02:17:49;;;;;;;1.75;0.90;;;19.10;91.90;;;;;;5026703;28;20017;-36
2022/06/29 02:20:15;;;;;;;1.20;0.90;;;19.10;92.00;;;;;;5027953;28;20028;-34
2022/06/29 02:22:41;;;;;;;0.90;0.90;;;19.00;92.00;;;;;;5023728;28;20021;-34
2022/06/29 02:25:08;;;;;;;3.47;0.77;;;19.00;92.00;;;;;;5027554;28;20365;-34
2022/06/29 02:27:33;;;;;;;0.90;0.90;;;19.00;92.10;;;;;;5027182;28;20049;-36
2022/06/29 02:29:59;;;;;;;1.38;1.02;;;18.90;92.10;;;;;;5028285;28;20021;-34
2022/06/29 02:35:08;;;;;;;0.85;0.75;;;18.90;92.20;;;;;;5027803;28;20091;-36
2022/06/29 02:37:34;;;;;;;2.15;1.05;;;18.90;92.30;;;;;;5026530;28;20388;-34
2022/06/29 02:39:59;;;;;;;1.10;0.98;;;18.90;92.30;;;;;;5008410;28;20061;-35
2022/06/29 02:42:26;;;;;;;0.90;0.90;;;18.90;92.40;;;;;;5020751;28;20354;-34
2022/06/29 02:44:55;;;;;;;0.93;0.90;;;18.80;92.50;;;;;;5026876;28;20124;-34
2022/06/29 02:47:21;;;;;;;1.38;1.00;;;18.80;92.50;;;;;;5026737;28;20044;-35
2022/06/29 02:49:46;;;;;;;2.40;1.30;;;18.80;92.60;;;;;;5026995;28;20025;-35
2022/06/29 02:52:12;;;;;;;1.15;1.05;;;18.80;92.60;;;;;;5026644;28;20383;-35
2022/06/29 02:54:37;;;;;;;2.28;1.33;;;18.70;92.70;;;;;;5027558;28;20083;-34
2022/06/29 02:57:03;;;;;;;1.98;1.10;;;18.70;92.70;;;;;;5027275;28;20033;-33
2022/06/29 02:59:29;;;;;;;2.08;1.30;;;18.60;92.70;;;;;;5025789;28;20049;-35
2022/06/29 03:01:55;;;;;;;1.70;1.20;;;18.60;92.80;;;;;;5027652;28;20025;-34
2022/06/29 03:04:20;;;;;;;1.92;1.20;;;18.60;92.90;;;;;;5026589;28;20033;-35
2022/06/29 03:06:46;;;;;;;1.65;1.02;;;18.60;92.90;;;;;;5025805;28;20037;-33
2022/06/29 03:09:12;;;;;;;1.83;1.30;;;18.60;93.00;;;;;;5027093;28;20018;-35
2022/06/29 03:11:37;;;;;;;2.17;1.30;;;18.50;93.00;;;;;;5025926;28;20037;-35
2022/06/29 03:14:03;;;;;;;1.55;1.20;;;18.50;93.10;;;;;;5025926;28;20022;-35
2022/06/29 03:16:29;;;;;;;1.45;1.10;;;18.50;93.10;;;;;;5026502;28;20037;-35
2022/06/29 03:18:55;;;;;;;1.25;1.15;;;18.50;93.20;;;;;;5026015;28;20018;-35
2022/06/29 03:21:20;;;;;;;1.27;1.17;;;18.50;93.20;;;;;;5022815;28;20465;-35
2022/06/29 03:23:46;;;;;;;2.25;1.50;;;18.50;93.20;;;;;;5019788;28;20465;-34
2022/06/29 03:26:12;;;;;;;3.30;1.50;;;18.50;93.30;;;;;;5026080;28;20417;-33
2022/06/29 03:28:37;;;;;;;2.05;1.33;;;18.40;93.30;;;;;;5025023;28;20420;-33
2022/06/29 03:31:04;;;;;;;1.77;1.35;;;18.40;93.40;;;;;;5026337;28;20491;-35
2022/06/29 03:33:29;;;;;;;2.75;1.48;;;18.40;93.40;;;;;;5025729;28;20029;-33
2022/06/29 03:35:55;;;;;;;1.65;1.25;;;18.40;93.50;;;;;;5026078;28;20041;-35
2022/06/29 03:38:20;;;;;;;2.35;1.30;;;18.40;93.50;;;;;;5025859;28;20531;-37
2022/06/29 03:40:46;;;;;;;2.10;1.27;;;18.40;93.60;;;;;;5025937;28;20145;-35
2022/06/29 03:43:12;;;;;;;2.63;1.23;;;18.40;93.60;;;;;;5026439;28;20027;-36
2022/06/29 03:45:37;;;;;;;2.35;1.50;;;18.40;93.60;;;;;;5025744;28;20036;-35
2022/06/29 03:48:03;;;;;;;2.65;1.33;;;18.30;93.70;;;;;;5025393;28;20041;-34
2022/06/29 03:50:29;;;;;;;1.77;1.40;;;18.30;93.80;;;;;;5025668;28;20022;-35
2022/06/29 03:52:54;;;;;;;2.92;1.35;;;18.30;93.90;;;;;;5026261;28;20075;-34
2022/06/29 03:55:20;;;;;;;3.50;1.67;;;18.30;93.90;;;;;;5025154;28;20033;-35
2022/06/29 03:57:45;;;;;;;2.08;1.63;;;18.30;93.90;;;;;;5025940;28;20025;-36
2022/06/29 04:00:12;;;;;;;1.58;1.33;;;18.30;94.00;;;;;;5025396;28;20045;-35
2022/06/29 04:02:37;;;;;;;2.47;1.60;;;18.30;94.00;;;;;;5024937;28;20049;-34
2022/06/29 04:05:04;;;;;;;1.83;1.50;;;18.30;94.10;;;;;;5025960;28;20025;-35
2022/06/29 04:07:31;;;;;;;2.97;1.60;;;18.30;94.10;;;;;;5025314;28;20052;-34
2022/06/29 04:09:59;;;;;;;1.83;1.40;;;18.40;94.20;;;;;;5025235;28;20053;-35
2022/06/29 04:12:36;;;;;;;2.60;1.50;;;18.30;94.20;;;;;;5025042;28;20029;-35
2022/06/29 04:15:03;;;;;;;2.70;1.60;;;18.40;94.30;;;;;;5025542;28;20040;-36
2022/06/29 04:17:29;;;;;;;2.80;1.52;;;18.30;94.20;;;;;;5024759;28;20040;-35
2022/06/29 04:19:54;;;;;;;1.95;1.40;;;18.40;94.30;;;;;;5026058;28;20014;-34
2022/06/29 04:22:20;;;;;;;2.13;1.50;;;18.40;94.30;;;;;;5025523;28;20393;-35
2022/06/29 04:24:46;;;;;;;1.73;1.33;;;18.30;94.30;;;;;;5025405;28;20072;-35
2022/06/29 04:27:12;;;;;;;1.75;1.60;;;18.30;94.30;;;;;;5026012;28;20465;-34
2022/06/29 04:29:38;;;;;;;2.05;1.50;;;18.30;94.40;;;;;;5025139;28;20028;-34
2022/06/29 04:32:04;;;;;;;1.90;1.60;;;18.30;94.40;;;;;;5025828;28;20038;-34
2022/06/29 04:34:30;;;;;;;2.50;1.70;;;18.30;94.50;;;;;;5025477;28;20014;-34
2022/06/29 04:36:55;;;;;;;1.42;1.30;;;18.30;94.50;;;;;;5025449;28;20184;-33
2022/06/29 04:39:21;;;;;;;1.48;1.38;;;18.30;94.50;;;;;;5026200;28;20067;-34
2022/06/29 04:41:47;;;;;;;4.60;1.70;;;18.30;94.50;;;;;;5029245;28;20025;-34
2022/06/29 04:44:13;;;;;;;1.88;1.67;;;18.30;94.60;;;;;;5029740;28;20037;-35
2022/06/29 04:46:38;;;;;;;2.22;1.83;;;18.30;94.60;;;;;;5029487;28;20033;-35
2022/06/29 04:49:04;;;;;;;2.28;1.67;;;18.40;94.70;;;;;;5030030;28;20033;-33
2022/06/29 04:51:31;;;;;;;1.92;1.67;;;18.30;94.70;;;;;;5028864;28;20022;-35
2022/06/29 04:54:00;;;;;;;2.00;1.80;;;18.40;94.80;;;;;;5029735;28;20108;-35
2022/06/29 04:56:29;;;;;;;1.80;1.52;;;18.40;94.80;;;;;;5029391;28;20133;-34
2022/06/29 04:58:55;;;;;;;3.08;1.80;;;18.40;94.80;;;;;;5028437;28;20040;-35
2022/06/29 05:01:21;;;;;;;1.90;1.70;;;18.40;94.80;;;;;;5028779;28;20047;-35
2022/06/29 05:03:47;;;;;;;1.58;1.48;;;18.40;94.90;;;;;;5029176;28;20499;-34
2022/06/29 05:06:13;;;;;;;1.98;1.77;;;18.50;95.00;;;;;;5028388;28;20029;-35
2022/06/29 05:08:38;;;;;;;3.47;1.58;;;18.50;95.00;;;;;;5028787;28;20040;-34
2022/06/29 05:11:04;;;;;;;3.30;1.48;;;18.50;95.00;;;;;;5029269;28;20045;-43
2022/06/29 05:13:30;;;;;;;2.47;1.60;;;18.50;95.00;;;;;;5027644;28;20029;-35
2022/06/29 05:15:55;;;;;;;2.78;1.75;;;18.50;95.00;;;;;;5029489;28;20112;-34
2022/06/29 05:18:21;;;;;;;2.15;1.80;;;18.60;95.10;;;;;;5028722;28;20028;-35
2022/06/29 05:20:47;;;;;;;1.85;1.50;;;18.60;95.10;;;;;;5029138;28;20018;-34
2022/06/29 05:23:12;;;;;;;1.98;1.50;;;18.60;95.10;;;;;;5028624;28;20114;-35
2022/06/29 05:25:39;;;;;;;2.20;1.70;;;18.70;95.10;;;;;;5028325;28;20025;-36
2022/06/29 05:28:05;;;;;;;1.80;1.60;;;18.70;95.10;;;;;;5028526;28;20049;-35
2022/06/29 05:30:31;;;;;;;2.78;1.38;;;18.70;95.10;;;;;;5028795;28;20162;-35
2022/06/29 05:32:57;;;;;;;2.28;1.40;;;18.80;95.20;;;;;;5028768;28;20065;-34
2022/06/29 05:35:22;;;;;;;1.75;1.55;;;18.80;95.20;;;;;;5028347;28;20022;-35
2022/06/29 05:37:48;;;;;;;3.83;1.88;;;18.80;95.10;;;;;;5026651;28;20017;-34
2022/06/29 05:40:14;;;;;;;1.58;1.48;;;18.90;95.20;;;;;;5028456;28;20172;-35
2022/06/29 05:42:39;;;;;;;3.47;1.60;;;18.90;95.20;;;;;;5023210;28;20021;-35
2022/06/29 05:45:06;;;;;;;1.50;1.40;;;18.90;95.20;;;;;;5011623;28;20021;-34
2022/06/29 05:47:31;;;;;;;1.63;1.50;;;18.90;95.20;;;;;;5007479;28;20428;-34
2022/06/29 05:50:00;;;;;;;2.00;1.77;;;19.00;95.20;;;;;;5018724;28;20650;-34
2022/06/29 05:52:26;;;;;;;1.92;1.60;;;19.00;95.20;;;;;;5007569;28;20036;-36
2022/06/29 05:54:51;;;;;;;1.88;1.38;;;19.00;95.30;;;;;;5018105;28;20029;-34
2022/06/29 05:57:19;;;;;;;2.55;1.65;;;19.10;95.30;;;;;;5006930;28;20124;-35
2022/06/29 05:59:46;;;;;;;1.60;1.30;;;19.10;95.30;;;;;;5025838;28;20041;-34
2022/06/29 06:02:11;;;;;;;2.35;1.73;;;19.20;95.30;;;;;;5026215;28;20029;-35
2022/06/29 06:04:37;;;;;;;2.53;1.65;;;19.20;95.30;;;;;;5026834;28;20455;-35
2022/06/29 06:07:02;;;;;;;3.25;2.03;;;19.30;95.30;;;;;;5027522;28;20045;-35
2022/06/29 06:09:28;;;;;;;1.77;1.67;;;19.30;95.30;;;;;;5026155;28;20028;-35
2022/06/29 06:11:54;;;;;;;1.75;1.63;;;19.40;95.30;;;;;;5027984;28;20469;-34
2022/06/29 06:14:20;;;;;;;1.83;1.50;;;19.40;95.30;;;;;;5026040;28;20026;-35
2022/06/29 06:16:46;;;;;;;1.80;1.60;;;19.40;95.40;;;;;;5026455;28;20067;-35
2022/06/29 06:19:11;;;;;;;2.00;1.80;;;19.50;95.40;;;;;;5027236;28;20041;-35
2022/06/29 06:21:37;;;;;;;3.75;1.75;;;19.50;95.40;;;;;;5026348;28;20033;-35
2022/06/29 06:24:03;;;;;;;2.92;1.77;;;19.50;95.30;;;;;;5026057;28;20018;-35
2022/06/29 06:26:29;;;;;;;2.13;1.92;;;19.60;95.30;;;;;;5024803;28;20496;-36
2022/06/29 06:28:55;;;;;;;2.55;1.60;;;19.70;95.30;;;;;;5025811;28;20026;-35
2022/06/29 06:31:21;;;;;;;1.67;1.55;;;19.70;95.30;;;;;;5025964;28;20044;-35
2022/06/29 06:33:46;;;;;;;2.42;2.22;;;19.80;95.30;;;;;;5026330;28;20087;-35
2022/06/29 06:36:12;;;;;;;2.08;1.80;;;19.80;95.30;;;;;;5026730;28;20460;-35
2022/06/29 06:38:37;;;;;;;1.90;1.70;;;19.90;95.30;;;;;;5025620;28;20021;-34
2022/06/29 06:41:21;;;;;;;1.92;1.60;;;19.90;95.30;;;;;;5027124;28;20064;-34
2022/06/29 06:43:51;;;;;;;2.17;1.80;;;19.90;95.40;;;;;;5026592;28;20358;-34
2022/06/29 06:46:17;;;;;;;2.78;1.90;;;19.90;95.40;;;;;;5026228;28;20095;-35
2022/06/29 06:48:43;;;;;;;1.88;1.60;;;20.00;95.40;;;;;;5027290;28;20018;-36
2022/06/29 06:51:10;;;;;;;1.80;1.63;;;20.10;95.40;;;;;;5026162;28;20029;-34
2022/06/29 06:53:36;;;;;;;2.58;1.48;;;20.10;95.40;;;;;;5026413;28;20041;-35
2022/06/29 06:56:01;;;;;;;1.95;1.70;;;20.10;95.40;;;;;;5026849;28;20033;-34
2022/06/29 06:58:27;;;;;;;2.22;1.70;;;20.20;95.50;;;;;;5026068;28;20503;-34
2022/06/29 07:00:53;;;;;;;2.10;1.80;;;20.30;95.50;;;;;;5026465;28;20045;-34
2022/06/29 07:03:18;;;;;;;2.03;1.83;;;20.30;95.50;;;;;;5025832;28;20025;-35
2022/06/29 07:05:45;;;;;;;4.18;1.90;;;20.40;95.40;;;;;;5019922;28;20059;-35
2022/06/29 07:08:10;;;;;;;1.88;1.60;;;20.40;95.50;;;;;;5020565;28;20041;-34
2022/06/29 07:10:36;;;;;;;2.00;1.65;;;20.50;95.50;;;;;;5022865;28;20469;-37
2022/06/29 07:13:02;;;;;;;1.63;1.50;;;20.60;95.40;;;;;;5017079;28;20429;-34
2022/06/29 07:15:27;;;;;;;2.08;1.70;;;20.70;95.40;;;;;;5024975;28;20018;-35
2022/06/29 07:17:53;;;;;;;2.65;1.63;;;20.80;95.30;;;;;;5015233;28;20025;-35
2022/06/29 07:20:19;;;;;;;1.67;1.50;;;20.90;95.20;;;;;;5023696;28;20025;-35
2022/06/29 07:22:44;;;;;;;3.40;1.52;;;21.00;95.20;;;;;;5015471;28;20061;-35
2022/06/29 07:25:10;;;;;;;2.95;1.42;;;21.00;95.30;;;;;;5026591;28;20029;-35
2022/06/29 07:27:35;;;;;;;2.25;1.40;;;21.00;95.30;;;;;;5012604;28;20037;-36
2022/06/29 07:30:01;;;;;;;2.67;1.60;;;21.00;95.30;;;;;;5026561;28;20135;-37
2022/06/29 07:32:26;;;;;;;1.65;1.33;;;21.00;95.30;;;;;;5012730;28;20344;-35
2022/06/29 07:34:52;;;;;;;1.65;1.50;;;20.90;95.40;;;;;;5026080;28;20030;-37
2022/06/29 07:37:17;;;;;;;2.17;1.55;;;21.00;95.40;;;;;;5015905;28;20034;-37
2022/06/29 07:39:43;;;;;;;1.90;1.38;;;21.00;95.40;;;;;;5023029;28;20029;-36
2022/06/29 07:42:08;;;;;;;3.92;1.48;;;21.00;95.40;;;;;;5022930;28;20033;-36
2022/06/29 07:44:34;;;;;;;1.38;1.27;;;21.10;95.40;;;;;;5025734;28;20592;-36
2022/06/29 07:47:00;;;;;;;2.05;1.20;;;21.10;95.30;;;;;;5018733;28;20477;-35
2022/06/29 07:49:25;;;;;;;1.75;1.40;;;21.20;95.20;;;;;;5013219;28;20108;-35
2022/06/29 07:51:54;;;;;;;2.15;1.23;;;21.20;95.20;;;;;;5007430;28;20149;-35
2022/06/29 07:54:19;;;;;;;1.92;1.20;;;21.30;95.20;;;;;;5015569;28;20022;-35
2022/06/29 07:56:45;;;;;;;1.88;1.20;;;21.30;95.20;;;;;;5007141;28;20040;-35
2022/06/29 07:59:11;;;;;;;2.63;1.15;;;21.40;95.10;;;;;;5017027;28;20099;-36
2022/06/29 08:01:36;;;;;;;1.85;1.05;;;21.40;95.00;;;;;;5005986;28;20485;-35
2022/06/29 08:04:02;;;;;;;1.58;1.20;;;21.50;95.00;;;;;;5017736;28;20414;-35
2022/06/29 08:06:28;;;;;;;1.20;1.02;;;21.50;94.90;;;;;;5023489;28;20045;-35
2022/06/29 08:08:53;;;;;;;1.23;1.13;;;21.60;94.90;;;;;;5013136;28;20109;-34
2022/06/29 08:11:19;;;;;;;2.58;1.10;;;21.60;94.90;;;;;;5025527;28;20033;-35
2022/06/29 08:13:45;;;;;;;3.10;1.30;;;21.60;94.80;;;;;;5013437;28;20030;-35
2022/06/29 08:16:10;;;;;;;2.05;1.20;;;21.70;94.80;;;;;;5023930;28;20449;-36
2022/06/29 08:18:36;;;;;;;1.40;1.10;;;21.70;94.60;;;;;;5015824;28;20054;-36
2022/06/29 08:21:03;;;;;;;1.80;1.02;;;21.80;94.60;;;;;;5022697;28;20025;-35
2022/06/29 08:23:30;;;;;;;0.80;0.80;;;21.80;94.50;;;;;;5017994;28;20072;-35
2022/06/29 08:25:56;;;;;;;0.85;0.82;;;21.90;94.50;;;;;;5020081;28;20665;-34
2022/06/29 08:28:23;;;;;;;1.70;1.00;;;22.00;94.50;;;;;;5020487;28;20030;-36
2022/06/29 08:30:48;;;;;;;1.27;1.10;;;22.00;94.50;;;;;;5017155;28;20076;-35
2022/06/29 08:33:14;;;;;;;2.83;1.00;;;22.00;94.40;;;;;;5023178;28;20069;-35
2022/06/29 08:35:41;;;;;;;3.28;1.00;;;22.10;94.40;;;;;;5015131;28;20116;-36
2022/06/29 08:38:07;;;;;;;1.75;1.17;;;22.10;94.40;;;;;;5023492;28;20024;-35
2022/06/29 08:40:44;;;;;;;1.50;0.82;;;22.20;94.40;;;;;;5011818;28;20112;-35
2022/06/29 08:43:17;;;;;;;1.20;1.00;;;22.30;94.30;;;;;;5014891;28;20037;-36
2022/06/29 08:45:45;;;;;;;1.90;1.20;;;22.30;94.20;;;;;;5016241;28;20487;-35
2022/06/29 08:48:13;;;;;;;1.10;1.00;;;22.40;94.10;;;;;;5006496;28;20045;-36
2022/06/29 08:50:40;;;;;;;1.17;1.05;;;22.50;94.10;;;;;;5016095;28;20022;-35
2022/06/29 08:53:07;;;;;;;1.67;1.00;;;22.50;94.00;;;;;;5015219;28;20030;-35
2022/06/29 08:55:47;;;;;;;1.80;1.10;;;22.60;94.00;;;;;;5023918;28;20025;-35
2022/06/29 08:58:21;;;;;;;1.20;1.08;;;22.70;94.00;;;;;;5025217;28;20099;-35
2022/06/29 09:00:51;;;;;;;2.03;1.15;;;22.80;94.00;;;;;;5024649;28;20133;-34
2022/06/29 09:03:18;;;;;;;1.25;0.90;;;22.80;93.90;;;;;;5025198;28;20040;-36
2022/06/29 09:05:51;;;;;;;0.90;0.85;;;22.80;93.90;;;;;;5024559;28;20113;-34
2022/06/29 09:08:18;;;;;;;1.23;0.88;;;22.90;93.90;;;;;;5025320;28;20041;-34
2022/06/29 09:10:44;;;;;;;2.50;1.10;;;22.90;93.90;;;;;;5024860;28;20491;-34
2022/06/29 09:13:10;;;;;;;0.80;0.80;;;22.90;93.90;;;;;;5005295;28;20030;-34
2022/06/29 09:15:40;;;;;;;1.00;0.90;;;23.00;94.10;;;;;;5018302;28;20388;-34
2022/06/29 09:18:26;;;;;;;1.60;1.00;;;23.10;93.70;;;;;;5024436;28;20487;-34
2022/06/29 09:20:56;;;;;;;1.83;1.00;;;23.20;93.70;;;;;;5025459;28;20030;-35
2022/06/29 09:23:23;;;;;;;2.15;1.00;;;23.30;93.60;;;;;;5025148;28;20021;-35
2022/06/29 09:25:49;;;;;;;1.88;1.10;;;23.40;93.60;;;;;;5025194;28;20319;-34
2022/06/29 09:28:31;;;;;;;1.77;1.23;;;23.60;93.40;;;;;;5028180;28;20419;-34
2022/06/29 09:30:58;;;;;;;1.20;1.02;;;23.70;93.30;;;;;;5027915;28;20017;-34
2022/06/29 09:33:26;;;;;;;1.42;1.10;;;23.80;93.20;;;;;;5027685;28;20429;-35
2022/06/29 09:36:14;;;;;;;1.60;1.23;;;23.90;93.20;;;;;;5028346;28;20021;-35
2022/06/29 09:38:40;;;;;;;2.17;1.10;;;23.90;93.20;;;;;;5028403;28;20030;-35
2022/06/29 09:41:11;;;;;;;1.10;1.05;;;24.00;93.10;;;;;;5027425;28;20441;-36
2022/06/29 09:43:40;;;;;;;2.78;1.30;;;24.20;93.10;;;;;;5028264;28;20033;-35
2022/06/29 09:46:08;;;;;;;2.85;1.40;;;24.30;93.20;;;;;;5027518;28;20026;-35
2022/06/29 09:48:36;;;;;;;1.70;1.20;;;24.50;93.10;;;;;;5027530;28;20030;-36
2022/06/29 09:51:30;;;;;;;1.90;1.30;;;24.60;93.00;;;;;;5028264;28;20464;-36
2022/06/29 09:54:10;;;;;;;1.73;1.10;;;24.70;93.00;;;;;;5026673;28;20328;-36
2022/06/29 09:56:45;;;;;;;1.52;1.20;;;24.80;92.90;;;;;;5027227;28;20083;-35
2022/06/29 09:59:13;;;;;;;2.17;1.00;;;24.90;92.70;;;;;;5027856;28;20045;-35
2022/06/29 10:04:26;;;;;;;1.73;1.00;;;25.00;92.30;;;;;;5027582;28;20630;-36
2022/06/29 10:06:53;;;;;;;0.80;0.80;;;25.10;92.20;;;;;;5026891;28;20483;-34
2022/06/29 10:09:19;;;;;;;0.75;0.70;;;25.10;92.00;;;;;;5027486;28;20112;-36
2022/06/29 10:15:05;;;;;;;0.70;0.70;;;25.20;91.40;;;;;;5027457;28;20130;-35
2022/06/29 10:17:39;;;;;;;1.00;0.60;;;25.20;91.40;;;;;;5027260;28;20037;-36
2022/06/29 10:20:34;;;;;;;0.65;0.60;;;25.20;91.30;;;;;;5027490;28;20033;-37
2022/06/29 10:22:59;;;;;;;0.80;0.80;;;25.30;90.80;;;;;;5027058;28;20014;-37
2022/06/29 10:25:27;;;;;;;0.93;0.70;;;25.40;90.40;;;;;;5026954;28;20080;-38
2022/06/29 10:28:18;;;;;;;0.73;0.60;;;25.50;90.20;;;;;;5027166;28;20067;-34
2022/06/29 10:30:45;;;;;;;0.80;0.60;;;25.60;89.60;;;;;;5026442;28;20037;-35
2022/06/29 10:33:34;;;;;;;1.27;0.90;;;25.70;89.20;;;;;;5027254;28;20041;-36
2022/06/29 10:36:08;;;;;;;0.70;0.70;;;25.80;89.10;;;;;;4999818;28;20064;-36
2022/06/29 10:38:55;;;;;;;1.08;0.90;;;25.80;89.10;;;;;;5021837;28;20453;-36
2022/06/29 10:44:06;;;;;;;0.95;0.85;;;25.90;88.50;;;;;;5025734;28;20140;-36
2022/06/29 10:46:58;;;;;;;0.80;0.80;;;26.10;88.60;;;;;;5027186;28;20108;-35
2022/06/29 10:49:24;;;;;;;0.82;0.80;;;26.20;88.50;;;;;;5026616;28;20052;-36
2022/06/29 10:51:51;;;;;;;1.55;1.30;;;26.30;87.90;;;;;;5027203;28;20432;-36
2022/06/29 10:54:27;;;;;;;1.50;0.73;;;26.40;87.60;;;;;;5026774;28;20432;-35
2022/06/29 10:56:53;;;;;;;0.93;0.77;;;26.50;87.50;;;;;;5026355;28;20135;-36
2022/06/29 10:59:38;;;;;;;1.20;0.90;;;26.40;87.60;;;;;;5026811;28;20226;-36
2022/06/29 11:02:15;;;;;;;1.30;0.88;;;26.30;86.50;;;;;;5007172;28;20056;-36
2022/06/29 11:04:42;;;;;;;2.17;1.20;;;26.20;86.30;;;;;;5023566;28;20443;-35
2022/06/29 11:12:51;;;;;;;3.05;1.15;;;26.10;86.40;;;;;;5026480;28;20047;-36
2022/06/29 11:15:41;;;;;;;2.08;1.10;;;26.10;86.20;;;;;;5026312;28;20404;-35
2022/06/29 11:18:08;;;;;;;1.45;0.90;;;26.20;86.30;;;;;;5025885;28;20041;-35
2022/06/29 11:20:34;;;;;;;1.15;0.80;;;26.20;86.50;;;;;;5026340;28;20044;-35
2022/06/29 11:23:02;;;;;;;0.98;0.90;;;26.10;86.50;;;;;;5026735;28;20063;-36
2022/06/29 11:25:35;;;;;;;1.40;0.95;;;26.10;86.80;;;;;;5025159;28;20084;-36
2022/06/29 11:28:01;;;;;;;1.35;1.00;;;26.10;86.70;;;;;;5026358;28;20108;-36
2022/06/29 11:30:26;;;;;;;1.00;0.85;;;26.20;86.80;;;;;;5025566;28;20544;-35
2022/06/29 11:32:52;;;;;;;1.63;1.20;;;26.30;87.10;;;;;;5025541;28;20035;-35
2022/06/29 11:35:23;;;;;;;3.22;0.98;;;26.30;87.20;;;;;;5025779;28;20017;-35
2022/06/29 11:38:01;;;;;;;1.17;0.90;;;26.40;87.20;;;;;;5025824;28;20146;-35
2022/06/29 11:40:41;;;;;;;1.63;0.85;;;26.40;87.00;;;;;;5024928;28;20022;-36
2022/06/29 11:43:09;;;;;;;1.60;1.00;;;26.40;86.60;;;;;;5025739;28;20417;-36
2022/06/29 11:45:47;;;;;;;1.65;1.17;;;26.40;86.70;;;;;;5025727;28;20116;-35
2022/06/29 11:48:16;;;;;;;1.23;1.10;;;26.30;86.10;;;;;;5025360;28;20139;-36
2022/06/29 11:50:59;;;;;;;1.17;0.93;;;26.40;86.00;;;;;;5025046;28;20021;-36
2022/06/29 11:53:43;;;;;;;;;;;26.50;85.90;;;;;;5025767;28;20546;-36
2022/06/29 11:56:22;;;;;;;1.40;1.10;;;26.60;84.90;;;;;;5025624;28;19909;-36
2022/06/29 11:58:52;;;;;;;0.70;0.70;;;26.80;84.30;;;;;;5005975;28;20029;-35
2022/06/29 12:01:26;;;;;;;1.02;0.90;;;26.80;84.40;;;;;;5021441;28;20523;-34
2022/06/29 12:03:54;;;;;;;1.13;0.90;;;26.90;84.30;;;;;;5025786;28;20029;-35
2022/06/29 12:06:22;;;;;;;1.00;0.85;;;26.90;84.10;;;;;;5025594;28;20026;-35
2022/06/29 12:08:49;;;;;;;1.60;1.00;;;27.10;83.30;;;;;;5025395;28;20388;-36
2022/06/29 12:11:15;;;;;;;0.93;0.85;;;27.20;82.50;;;;;;5025189;28;20588;-37
2022/06/29 12:13:42;;;;;;;1.08;1.00;;;27.30;82.20;;;;;;5025642;28;20030;-35
2022/06/29 12:16:08;;;;;;;1.25;0.90;;;27.40;82.00;;;;;;5025908;28;20025;-35
2022/06/29 12:18:34;;;;;;;1.38;0.90;;;27.40;81.70;;;;;;5025117;28;20029;-35
2022/06/29 12:20:59;;;;;;;1.35;0.90;;;27.50;81.80;;;;;;5025593;28;20024;-36
2022/06/29 12:23:25;;;;;;;0.90;0.73;;;27.40;81.80;;;;;;5025464;28;20089;-35
2022/06/29 12:25:53;;;;;;;1.10;0.65;;;27.40;81.30;;;;;;5025514;28;20115;-36
2022/06/29 12:28:19;;;;;;;2.60;1.20;;;27.40;80.90;;;;;;5025065;28;20481;-36
2022/06/29 12:30:44;;;;;;;1.02;0.93;;;27.30;81.00;;;;;;5025509;28;20036;-36
2022/06/29 12:33:10;;;;;;;0.95;0.70;;;27.30;80.90;;;;;;5025512;28;20032;-36
2022/06/29 12:35:36;;;;;;;0.68;0.68;;;27.40;80.30;;;;;;5025176;28;20026;-35
2022/06/29 12:38:02;;;;;;;0.73;0.60;;;27.40;80.00;;;;;;5025753;28;20148;-35
2022/06/29 12:40:31;;;;;;;1.88;0.90;;;27.40;80.10;;;;;;5024974;28;20102;-36
2022/06/29 12:42:57;;;;;;;0.80;0.70;;;27.50;79.00;;;;;;5025065;28;20469;-36
2022/06/29 12:45:24;;;;;;;1.55;0.70;;;27.60;78.90;;;;;;5024990;28;20038;-36
2022/06/29 12:47:53;;;;;;;1.00;0.80;;;27.80;79.30;;;;;;5025218;28;20029;-34
2022/06/29 12:50:19;;;;;;;1.10;0.90;;;27.80;79.10;;;;;;5024833;28;20064;-36
2022/06/29 12:52:49;;;;;;;1.20;0.93;;;27.90;78.80;;;;;;5024786;28;20032;-34
2022/06/29 12:55:16;;;;;;;2.20;0.90;;;27.90;79.00;;;;;;5024793;28;20532;-37
2022/06/29 12:57:43;;;;;;;1.17;1.08;;;27.90;78.80;;;;;;5024090;28;20034;-36
2022/06/29 13:00:10;;;;;;;2.05;0.95;;;27.90;78.60;;;;;;5024862;28;20049;-36
2022/06/29 13:02:36;;;;;;;1.10;0.90;;;28.10;78.90;;;;;;5027386;28;20032;-36
2022/06/29 13:05:02;;;;;;;1.08;0.98;;;28.10;78.50;;;;;;5029335;28;20061;-35
2022/06/29 13:07:28;;;;;;;1.23;1.05;;;28.20;77.80;;;;;;5028083;28;20032;-36